createdAt,value
2019-04-11T00:00:35.651Z,76.90
2019-04-11T00:03:05.091Z,76.40
2019-04-11T00:05:34.927Z,76.30
2019-04-11T00:08:03.821Z,76.40
2019-04-11T00:10:33.338Z,76.00
2019-04-11T00:13:15.116Z,76.30
2019-04-11T00:15:32.815Z,76.20
2019-04-11T00:18:02.715Z,75.80
2019-04-11T00:20:31.881Z,77.00
2019-04-11T00:23:01.695Z,76.20
2019-04-11T00:25:30.282Z,77.50
2019-04-11T00:27:59.384Z,77.10
2019-04-11T00:30:28.218Z,78.20
2019-04-11T00:33:02.245Z,78.50
2019-04-11T00:35:31.438Z,78.50
2019-04-11T00:37:59.985Z,79.40
2019-04-11T00:40:29.081Z,78.50
2019-04-11T00:42:58.823Z,78.70
2019-04-11T00:45:27.588Z,79.70
2019-04-11T00:47:57.425Z,79.80
2019-04-11T00:50:27.553Z,79.50
2019-04-11T00:52:56.400Z,79.80
2019-04-11T00:55:25.099Z,79.80
2019-04-11T00:57:53.582Z,80.10
2019-04-11T01:00:22.861Z,79.80
2019-04-11T01:02:51.667Z,79.70
2019-04-11T01:05:21.312Z,80.30
2019-04-11T01:07:51.309Z,80.70
2019-04-11T01:10:20.355Z,81.20
2019-04-11T01:12:49.882Z,81.10
2019-04-11T01:15:20.290Z,81.00
2019-04-11T01:17:49.700Z,81.00
2019-04-11T01:20:19.446Z,81.80
2019-04-11T01:22:54.252Z,83.80
2019-04-11T01:25:22.892Z,83.30
2019-04-11T01:27:51.427Z,82.40
2019-04-11T01:30:40.934Z,82.60
2019-04-11T01:33:09.427Z,82.00
2019-04-11T01:35:38.018Z,81.60
2019-04-11T01:38:06.549Z,81.50
2019-04-11T01:40:36.018Z,82.40
2019-04-11T01:43:06.065Z,84.00
2019-04-11T01:45:35.770Z,83.20
2019-04-11T01:48:21.634Z,83.30
2019-04-11T01:50:51.729Z,82.70
2019-04-11T01:53:20.435Z,82.50
2019-04-11T01:55:49.094Z,82.70
2019-04-11T01:58:18.383Z,83.10
2019-04-11T02:00:54.654Z,83.10
2019-04-11T02:03:41.433Z,82.50
2019-04-11T02:06:13.893Z,82.60
2019-04-11T02:08:47.272Z,83.10
2019-04-11T02:11:15.795Z,84.20
2019-04-11T02:13:44.298Z,83.50
2019-04-11T02:16:12.750Z,83.00
2019-04-11T02:18:43.662Z,82.80
2019-04-11T02:21:15.741Z,82.70
2019-04-11T02:23:48.497Z,83.10
2019-04-11T02:26:27.714Z,83.40
2019-04-11T02:28:59.409Z,85.00
2019-04-11T02:31:32.183Z,84.60
2019-04-11T02:34:01.980Z,84.60
2019-04-11T02:36:33.422Z,86.30
2019-04-11T02:39:08.053Z,85.20
2019-04-11T02:41:35.097Z,85.00
2019-04-11T02:44:03.628Z,83.90
2019-04-11T02:46:42.646Z,84.60
2019-04-11T02:49:03.256Z,85.40
2019-04-11T02:51:32.000Z,85.80
2019-04-11T02:54:02.075Z,86.90
2019-04-11T02:56:31.451Z,86.40
2019-04-11T02:59:02.323Z,86.40
2019-04-11T03:01:31.993Z,87.30
2019-04-11T03:04:04.367Z,87.60
2019-04-11T03:06:33.371Z,86.90
2019-04-11T03:09:02.503Z,87.10
2019-04-11T03:11:32.575Z,88.30
2019-04-11T03:14:03.922Z,88.00
2019-04-11T03:16:42.934Z,90.20
2019-04-11T03:19:18.324Z,89.40
2019-04-11T03:21:36.351Z,89.50
2019-04-11T03:24:04.712Z,88.50
2019-04-11T03:26:33.612Z,87.60
2019-04-11T03:29:04.157Z,86.60
2019-04-11T03:32:13.481Z,88.40
2019-04-11T03:37:17.264Z,86.50
2019-04-11T03:39:43.885Z,87.80
2019-04-11T03:42:11.095Z,86.90
2019-04-11T03:44:32.974Z,86.10
2019-04-11T03:47:14.808Z,86.20
2019-04-11T03:49:35.639Z,86.50
2019-04-11T03:51:55.778Z,87.50
2019-04-11T03:54:25.211Z,86.50
2019-04-11T03:56:54.074Z,86.70
2019-04-11T03:59:23.657Z,86.90
2019-04-11T04:01:54.353Z,86.40
2019-04-11T04:04:23.879Z,85.60
2019-04-11T04:06:55.249Z,86.10
2019-04-11T04:09:26.193Z,86.50
2019-04-11T04:11:59.528Z,85.80
2019-04-11T04:14:37.139Z,85.50
2019-04-11T04:17:12.429Z,85.40
2019-04-11T04:19:49.899Z,86.90
2019-04-11T04:22:22.150Z,86.00
2019-04-11T04:24:51.719Z,85.70
2019-04-11T04:27:23.188Z,85.40
2019-04-11T04:29:56.870Z,85.10
2019-04-11T04:32:23.726Z,85.00
2019-04-11T04:34:53.135Z,85.50
2019-04-11T04:37:24.862Z,85.60
2019-04-11T04:40:13.508Z,85.10
2019-04-11T04:42:31.122Z,85.20
2019-04-11T04:44:53.864Z,85.20
2019-04-11T04:47:32.436Z,85.60
2019-04-11T04:49:54.381Z,85.70
2019-04-11T04:52:25.028Z,85.30
2019-04-11T04:54:54.818Z,85.00
2019-04-11T04:57:24.488Z,85.30
2019-04-11T04:59:53.306Z,85.70
2019-04-11T05:02:21.785Z,85.40
2019-04-11T05:04:52.008Z,85.20
2019-04-11T05:07:20.946Z,85.00
2019-04-11T05:09:50.414Z,85.00
2019-04-11T05:12:20.567Z,85.00
2019-04-11T05:14:49.859Z,84.80
2019-04-11T05:17:19.219Z,84.90
2019-04-11T05:19:48.765Z,85.40
2019-04-11T05:22:17.363Z,85.10
2019-04-11T05:24:45.830Z,85.10
2019-04-11T05:27:20.937Z,84.30
2019-04-11T05:29:49.569Z,84.40
2019-04-11T05:32:18.084Z,84.30
2019-04-11T05:34:46.578Z,83.90
2019-04-11T05:37:15.371Z,84.20
2019-04-11T05:39:44.879Z,83.70
2019-04-11T05:42:17.283Z,83.60
2019-04-11T05:44:45.119Z,82.50
2019-04-11T05:47:18.077Z,82.20
2019-04-11T05:49:46.654Z,81.90
2019-04-11T05:52:15.719Z,81.50
2019-04-11T05:54:55.311Z,80.50
2019-04-11T05:57:30.297Z,79.80
2019-04-11T05:59:55.110Z,79.30
2019-04-11T06:02:26.836Z,79.40
2019-04-11T06:05:13.189Z,77.90
2019-04-11T06:07:54.743Z,76.90
2019-04-11T06:10:43.488Z,76.50
2019-04-11T06:13:37.491Z,75.20
2019-04-11T06:16:48.812Z,73.90
2019-04-11T06:19:12.335Z,73.10
2019-04-11T06:21:46.418Z,72.90
2019-04-11T06:24:32.592Z,72.50
2019-04-11T06:27:20.015Z,72.40
2019-04-11T06:29:59.568Z,71.90
2019-04-11T06:32:40.209Z,71.70
2019-04-11T06:35:26.171Z,71.50
2019-04-11T06:38:12.917Z,71.50
2019-04-11T06:40:55.144Z,70.90
2019-04-11T06:43:32.035Z,70.10
2019-04-11T06:46:18.726Z,67.70
2019-04-11T06:48:49.642Z,65.90
2019-04-11T06:51:38.280Z,66.70
2019-04-11T06:54:16.915Z,66.50
2019-04-11T06:56:47.587Z,66.60
2019-04-11T06:59:18.493Z,67.00
2019-04-11T07:01:47.594Z,67.50
2019-04-11T07:04:29.594Z,68.30
2019-04-11T07:07:00.163Z,67.80
2019-04-11T07:09:30.960Z,67.20
2019-04-11T07:12:07.736Z,66.70
2019-04-11T07:14:49.967Z,66.90
2019-04-11T07:17:37.397Z,65.70
2019-04-11T07:23:11.392Z,61.50
2019-04-11T07:25:58.143Z,59.10
2019-04-11T07:28:35.687Z,58.10
2019-04-11T07:31:23.357Z,58.40
2019-04-11T07:34:10.649Z,58.30
2019-04-11T07:36:57.954Z,57.50
2019-04-11T07:39:28.878Z,57.00
2019-04-11T07:42:00.302Z,57.30
2019-04-11T07:44:34.050Z,58.40
2019-04-11T07:47:23.423Z,58.30
2019-04-11T07:49:53.449Z,58.60
2019-04-11T07:52:25.412Z,59.10
2019-04-11T07:54:55.763Z,59.80
2019-04-11T07:57:26.379Z,59.50
2019-04-11T08:00:00.103Z,59.20
2019-04-11T08:02:31.294Z,59.10
2019-04-11T08:05:02.399Z,59.10
2019-04-11T08:07:55.118Z,59.50
2019-04-11T08:10:35.475Z,59.80
2019-04-11T08:13:12.415Z,59.10
2019-04-11T08:15:51.330Z,58.90
2019-04-11T08:18:21.494Z,57.90
2019-04-11T08:21:08.032Z,58.30
2019-04-11T08:23:38.049Z,58.10
2019-04-11T08:26:20.195Z,57.90
2019-04-11T08:28:59.635Z,56.90
2019-04-11T08:31:36.744Z,57.90
2019-04-11T08:34:05.223Z,56.20
2019-04-11T08:36:50.609Z,55.90
2019-04-11T08:39:19.264Z,56.70
2019-04-11T08:44:39.726Z,55.70
2019-04-11T08:47:08.267Z,55.50
2019-04-11T08:49:41.859Z,55.70
2019-04-11T08:52:11.986Z,55.90
2019-04-11T08:54:53.677Z,55.20
2019-04-11T08:57:27.995Z,54.10
2019-04-11T09:00:02.189Z,54.70
2019-04-11T09:02:33.280Z,52.60
2019-04-11T09:05:11.932Z,53.50
2019-04-11T09:07:38.120Z,53.90
2019-04-11T09:10:15.704Z,53.40
2019-04-11T09:12:55.127Z,53.00
2019-04-11T09:15:43.215Z,53.30
2019-04-11T09:18:13.708Z,53.70
2019-04-11T09:20:47.631Z,54.30
2019-04-11T09:23:16.233Z,53.50
2019-04-11T09:26:01.822Z,52.60
2019-04-11T09:28:37.664Z,53.30
2019-04-11T09:31:30.166Z,53.50
2019-04-11T09:34:06.365Z,52.90
2019-04-11T09:36:37.058Z,52.60
2019-04-11T09:39:19.303Z,52.20
2019-04-11T09:42:10.577Z,52.10
2019-04-11T09:47:40.980Z,51.50
2019-04-11T09:50:28.710Z,51.90
2019-04-11T09:52:59.129Z,51.60
2019-04-11T09:55:29.296Z,51.80
2019-04-11T09:58:01.343Z,50.90
2019-04-11T10:00:48.961Z,50.20
2019-04-11T10:03:21.826Z,50.60
2019-04-11T10:08:33.159Z,50.70
2019-04-11T10:11:18.698Z,50.00
2019-04-11T10:13:58.051Z,49.20
2019-04-11T10:16:28.756Z,46.70
2019-04-11T10:19:07.834Z,45.70
2019-04-11T10:21:41.693Z,45.80
2019-04-11T10:24:22.452Z,45.40
2019-04-11T10:26:58.529Z,46.10
2019-04-11T10:29:31.887Z,45.50
2019-04-11T10:32:01.439Z,45.00
2019-04-11T10:34:33.952Z,44.90
2019-04-11T10:37:03.578Z,45.10
2019-04-11T10:39:33.784Z,45.80
2019-04-11T10:42:15.855Z,45.60
2019-04-11T10:45:04.624Z,45.10
2019-04-11T10:47:34.886Z,43.60
2019-04-11T10:50:15.483Z,42.50
2019-04-11T10:52:48.851Z,42.80
2019-04-11T10:55:19.736Z,43.80
2019-04-11T10:58:06.752Z,43.50
2019-04-11T11:00:37.608Z,42.30
2019-04-11T11:03:13.839Z,42.90
2019-04-11T11:05:53.385Z,42.50
2019-04-11T11:08:33.327Z,42.80
2019-04-11T11:11:16.442Z,42.40
2019-04-11T11:14:06.640Z,42.70
2019-04-11T11:16:41.874Z,41.80
2019-04-11T11:19:43.920Z,41.70
2019-04-11T11:21:41.412Z,41.20
2019-04-11T11:24:29.545Z,41.10
2019-04-11T11:26:59.846Z,41.90
2019-04-11T11:29:32.902Z,41.40
2019-04-11T11:32:05.429Z,41.70
2019-04-11T11:34:38.950Z,40.70
2019-04-11T11:37:26.974Z,41.10
2019-04-11T11:40:06.767Z,40.60
2019-04-11T11:42:50.556Z,41.50
2019-04-11T11:45:23.683Z,41.90
2019-04-11T11:47:55.531Z,42.30
2019-04-11T11:50:26.775Z,41.70
2019-04-11T11:53:09.896Z,42.50
2019-04-11T11:55:45.308Z,41.70
2019-04-11T11:58:21.663Z,41.40
2019-04-11T12:00:57.162Z,41.20
2019-04-11T12:03:29.367Z,41.70
2019-04-11T12:05:59.052Z,40.40
2019-04-11T12:08:48.272Z,40.00
2019-04-11T12:11:17.794Z,40.00
2019-04-11T12:13:48.017Z,40.00
2019-04-11T12:16:21.912Z,39.70
2019-04-11T12:18:58.355Z,39.90
2019-04-11T12:21:35.295Z,39.90
2019-04-11T12:24:06.702Z,40.50
2019-04-11T12:29:34.554Z,40.00
2019-04-11T12:32:04.622Z,40.30
2019-04-11T12:34:45.009Z,39.60
2019-04-11T12:37:17.637Z,39.50
2019-04-11T12:39:55.826Z,39.40
2019-04-11T12:42:31.887Z,38.50
2019-04-11T12:45:25.073Z,38.80
2019-04-11T12:47:53.576Z,39.70
2019-04-11T12:50:35.573Z,39.40
2019-04-11T12:53:05.963Z,38.90
2019-04-11T12:58:28.385Z,39.60
2019-04-11T13:01:14.958Z,38.90
2019-04-11T13:04:01.445Z,38.50
2019-04-11T13:06:35.441Z,39.60
2019-04-11T13:09:20.020Z,39.60
2019-04-11T13:12:05.201Z,39.80
2019-04-11T13:14:50.286Z,39.90
2019-04-11T13:17:20.366Z,39.80
2019-04-11T13:20:06.863Z,39.70
2019-04-11T13:22:35.962Z,40.30
2019-04-11T13:25:10.316Z,39.50
2019-04-11T13:27:40.456Z,40.00
2019-04-11T13:30:25.791Z,40.00
2019-04-11T13:32:56.094Z,40.10
2019-04-11T13:35:26.226Z,41.00
2019-04-11T13:38:12.850Z,41.10
2019-04-11T13:40:48.375Z,40.60
2019-04-11T13:43:27.215Z,40.50
2019-04-11T13:46:15.286Z,40.80
2019-04-11T13:48:45.345Z,40.90
2019-04-11T13:51:30.763Z,40.90
2019-04-11T13:54:17.619Z,40.80
2019-04-11T13:57:04.075Z,41.30
2019-04-11T13:59:36.945Z,41.60
2019-04-11T14:02:16.044Z,41.20
2019-04-11T14:04:54.483Z,40.40
2019-04-11T14:07:24.273Z,40.40
2019-04-11T14:10:01.357Z,40.80
2019-04-11T14:12:29.605Z,40.70
2019-04-11T14:14:59.864Z,40.90
2019-04-11T14:17:32.938Z,40.80
2019-04-11T14:20:11.123Z,40.60
2019-04-11T14:22:44.140Z,41.20
2019-04-11T14:25:26.318Z,41.20
2019-04-11T14:27:56.684Z,41.20
2019-04-11T14:30:43.175Z,40.60
2019-04-11T14:33:17.491Z,40.90
2019-04-11T14:36:04.369Z,40.50
2019-04-11T14:38:32.935Z,40.70
2019-04-11T14:41:05.859Z,40.50
2019-04-11T14:43:55.372Z,40.00
2019-04-11T14:46:37.409Z,40.40
2019-04-11T14:49:10.135Z,40.30
2019-04-11T14:51:54.483Z,40.80
2019-04-11T14:54:28.125Z,40.80
2019-04-11T14:56:58.393Z,41.20
2019-04-11T14:59:46.924Z,40.90
2019-04-11T15:02:25.208Z,41.10
2019-04-11T15:05:13.590Z,41.10
2019-04-11T15:07:40.659Z,41.50
2019-04-11T15:10:11.223Z,40.60
2019-04-11T15:12:40.496Z,41.00
2019-04-11T15:15:10.708Z,41.20
2019-04-11T15:17:40.824Z,41.20
2019-04-11T15:20:11.566Z,41.60
2019-04-11T15:22:53.881Z,41.70
2019-04-11T15:25:30.109Z,42.10
2019-04-11T15:28:04.210Z,41.70
2019-04-11T15:33:56.841Z,42.50
2019-04-11T15:36:29.542Z,42.00
2019-04-11T15:39:17.871Z,42.40
2019-04-11T15:41:48.247Z,42.70
2019-04-11T15:47:11.129Z,42.40
2019-04-11T15:49:41.305Z,42.20
2019-04-11T15:52:11.720Z,42.30
2019-04-11T15:54:41.985Z,42.40
2019-04-11T15:57:12.763Z,42.30
2019-04-11T16:00:00.068Z,42.80
2019-04-11T16:02:33.395Z,42.80
2019-04-11T16:05:03.815Z,42.80
2019-04-11T16:07:42.758Z,42.40
2019-04-11T16:10:11.936Z,42.50
2019-04-11T16:12:57.698Z,42.60
2019-04-11T16:15:40.043Z,42.70
2019-04-11T16:18:22.127Z,42.80
2019-04-11T16:20:52.275Z,42.70
2019-04-11T16:25:58.816Z,43.00
2019-04-11T16:28:29.029Z,43.00
2019-04-11T16:30:58.471Z,42.80
2019-04-11T16:33:46.894Z,42.80
2019-04-11T16:36:17.257Z,43.10
2019-04-11T16:38:53.055Z,43.00
2019-04-11T16:41:39.791Z,43.00
2019-04-11T16:44:19.288Z,43.30
2019-04-11T16:47:08.262Z,43.50
2019-04-11T16:49:36.273Z,44.10
2019-04-11T16:52:07.363Z,43.70
2019-04-11T16:54:35.388Z,43.80
2019-04-11T16:57:03.996Z,43.80
2019-04-11T16:59:35.146Z,44.00
2019-04-11T17:02:02.741Z,44.30
2019-04-11T17:04:31.421Z,44.10
2019-04-11T17:07:01.645Z,44.10
2019-04-11T17:09:43.729Z,44.20
2019-04-11T17:12:14.862Z,44.60
2019-04-11T17:14:43.350Z,45.00
2019-04-11T17:17:15.371Z,45.20
2019-04-11T17:19:42.030Z,45.20
2019-04-11T17:22:10.587Z,45.20
2019-04-11T17:24:39.109Z,45.90
2019-04-11T17:27:07.702Z,45.50
2019-04-11T17:29:36.167Z,45.80
2019-04-11T17:32:04.620Z,45.90
2019-04-11T17:34:33.151Z,45.80
2019-04-11T17:37:02.874Z,46.00
2019-04-11T17:39:31.875Z,45.90
2019-04-11T17:42:00.388Z,45.70
2019-04-11T17:44:28.812Z,45.70
2019-04-11T17:46:57.494Z,46.00
2019-04-11T17:49:25.940Z,45.90
2019-04-11T17:51:56.071Z,46.10
2019-04-11T17:54:25.533Z,46.40
2019-04-11T17:56:58.745Z,46.90
2019-04-11T17:59:28.993Z,47.10
2019-04-11T18:01:56.313Z,47.70
2019-04-11T18:04:24.808Z,47.20
2019-04-11T18:06:53.316Z,48.00
2019-04-11T18:09:25.563Z,48.40
2019-04-11T18:11:55.859Z,49.00
2019-04-11T18:14:22.531Z,49.10
2019-04-11T18:16:50.958Z,49.40
2019-04-11T18:19:19.473Z,49.30
2019-04-11T18:21:47.914Z,49.30
2019-04-11T18:24:19.723Z,49.40
2019-04-11T18:26:46.770Z,49.40
2019-04-11T18:29:15.270Z,49.70
2019-04-11T18:31:43.843Z,49.70
2019-04-11T18:34:12.334Z,50.00
2019-04-11T18:36:40.790Z,50.10
2019-04-11T18:39:09.377Z,50.80
2019-04-11T18:41:37.915Z,50.60
2019-04-11T18:44:06.498Z,50.70
2019-04-11T18:46:35.000Z,51.10
2019-04-11T18:49:03.579Z,51.20
2019-04-11T18:51:32.198Z,51.30
2019-04-11T18:54:00.716Z,51.10
2019-04-11T18:56:29.273Z,51.10
2019-04-11T18:58:57.731Z,51.30
2019-04-11T19:01:26.228Z,51.40
2019-04-11T19:03:55.184Z,51.80
2019-04-11T19:06:28.054Z,51.90
2019-04-11T19:08:54.015Z,51.90
2019-04-11T19:11:24.247Z,52.80
2019-04-11T19:13:52.674Z,52.20
2019-04-11T19:16:21.253Z,52.40
2019-04-11T19:18:49.711Z,52.70
2019-04-11T19:21:21.096Z,52.90
2019-04-11T19:23:48.510Z,53.00
2019-04-11T19:26:16.971Z,53.30
2019-04-11T19:28:49.166Z,54.10
2019-04-11T19:31:17.358Z,54.10
2019-04-11T19:33:45.775Z,53.90
2019-04-11T19:36:14.218Z,54.10
2019-04-11T19:38:43.956Z,54.30
2019-04-11T19:41:17.197Z,54.60
2019-04-11T19:43:42.852Z,54.70
2019-04-11T19:46:11.341Z,54.80
2019-04-11T19:48:40.073Z,55.10
2019-04-11T19:51:10.921Z,55.40
2019-04-11T19:53:39.108Z,55.60
2019-04-11T19:56:12.114Z,55.70
2019-04-11T19:58:40.000Z,55.80
2019-04-11T20:01:08.554Z,56.20
2019-04-11T20:03:37.225Z,56.40
2019-04-11T20:06:05.812Z,56.70
2019-04-11T20:08:34.354Z,56.80
2019-04-11T20:11:03.008Z,56.80
2019-04-11T20:13:32.792Z,56.70
2019-04-11T20:16:01.420Z,56.80
2019-04-11T20:18:29.853Z,57.00
2019-04-11T20:20:58.434Z,57.30
2019-04-11T20:23:26.967Z,57.40
2019-04-11T20:25:56.147Z,58.30
2019-04-11T20:28:26.669Z,58.30
2019-04-11T20:30:54.909Z,58.30
2019-04-11T20:33:27.201Z,58.10
2019-04-11T20:35:53.621Z,58.00
2019-04-11T20:38:22.113Z,58.60
2019-04-11T20:40:52.519Z,59.00
2019-04-11T20:43:24.421Z,58.80
2019-04-11T20:45:53.248Z,58.80
2019-04-11T20:48:21.204Z,59.10
2019-04-11T20:50:49.830Z,59.30
2019-04-11T20:53:18.351Z,59.20
2019-04-11T20:55:46.828Z,59.30
2019-04-11T20:58:26.519Z,59.70
2019-04-11T21:00:50.660Z,59.90
2019-04-11T21:03:35.114Z,59.80
2019-04-11T21:06:03.715Z,60.20
2019-04-11T21:08:33.047Z,60.90
2019-04-11T21:11:04.509Z,60.00
2019-04-11T21:13:32.445Z,60.00
2019-04-11T21:16:00.991Z,60.30
2019-04-11T21:18:29.407Z,60.70
2019-04-11T21:20:57.873Z,60.60
2019-04-11T21:23:29.458Z,61.00
2019-04-11T21:25:58.875Z,61.40
2019-04-11T21:28:30.209Z,62.10
2019-04-11T21:31:00.156Z,62.00
2019-04-11T21:33:28.977Z,62.10
2019-04-11T21:35:57.416Z,62.30
2019-04-11T21:38:28.102Z,62.70
2019-04-11T21:40:57.439Z,62.50
2019-04-11T21:43:25.878Z,62.50
2019-04-11T21:45:55.555Z,62.90
2019-04-11T21:48:24.256Z,63.10
2019-04-11T21:50:52.731Z,63.20
2019-04-11T21:53:21.210Z,63.20
2019-04-11T21:55:49.723Z,63.10
2019-04-11T21:58:20.094Z,63.50
2019-04-11T22:00:54.282Z,63.60
2019-04-11T22:03:24.253Z,63.50
2019-04-11T22:05:53.439Z,64.20
2019-04-11T22:08:21.985Z,64.10
2019-04-11T22:10:50.633Z,64.30
2019-04-11T22:13:19.266Z,64.40
2019-04-11T22:15:47.709Z,64.40
2019-04-11T22:18:16.981Z,64.50
2019-04-11T22:20:45.931Z,65.10
2019-04-11T22:23:14.569Z,65.30
2019-04-11T22:25:43.006Z,65.20
2019-04-11T22:28:11.523Z,65.30
2019-04-11T22:30:40.014Z,65.30
2019-04-11T22:35:50.061Z,65.30
2019-04-11T22:38:18.556Z,65.20
2019-04-11T22:40:47.256Z,65.80
2019-04-11T22:43:24.158Z,65.70
2019-04-11T22:45:45.919Z,65.60
2019-04-11T22:48:14.417Z,65.90
2019-04-11T22:50:42.897Z,66.00
2019-04-11T22:53:13.053Z,66.40
2019-04-11T22:55:41.920Z,66.70
2019-04-11T22:58:13.928Z,66.80
2019-04-11T23:00:45.024Z,66.70
2019-04-11T23:03:18.229Z,66.50
2019-04-11T23:05:47.447Z,66.50
2019-04-11T23:08:18.791Z,66.50
2019-04-11T23:10:46.858Z,66.80
2019-04-11T23:13:16.387Z,67.00
2019-04-11T23:15:44.940Z,66.80
2019-04-11T23:18:14.028Z,67.20
2019-04-11T23:20:44.088Z,67.70
2019-04-11T23:23:13.995Z,67.50
2019-04-11T23:25:42.628Z,67.50
2019-04-11T23:28:11.177Z,67.70
2019-04-11T23:30:39.722Z,67.90
2019-04-11T23:33:08.252Z,68.10
2019-04-11T23:35:36.680Z,67.90
2019-04-11T23:38:05.118Z,68.50
2019-04-11T23:40:33.655Z,69.40
2019-04-11T23:43:02.142Z,68.70
2019-04-11T23:45:30.678Z,68.40
2019-04-11T23:47:59.270Z,68.60
2019-04-11T23:50:27.825Z,68.70
2019-04-11T23:52:57.966Z,68.70
2019-04-11T23:55:29.976Z,69.20
2019-04-11T23:58:01.118Z,69.50
